Hoene Spring, Missouri
Current Conditions -  °F | °C
As of 10:54 AM on Tuesday 27 Jan 2015 (Local Time) from KSUS Reporting Station
Few Clouds Few Clouds  
Wind Chill:   Ceiling: Unl
Heat Index:   Visibility: 10mi
Dew Point: -1°   Wind: 10mph
Humidity: 60%   Direction: 350°N
Pressure: 30.17"   Gusts: NA
Location:  38.5081°N, 90.6523°W
Report Text: KSUS 271654Z 35009KT 10SM FEW026 07/M01 A3017 RMK AO2 SLP220 T00671006
Loading
Personal Weather Stations






























Interactive Weather Map New forecast layout! Learn more

10-Day Weather Forecast

Advertisements
Track Severe Weather on mobile